Latest Coastal Weather Observations for Low Isles

IDQ60701

Issued at 2:02 am EST Thursday 1 September 2016 (issued every 10 minutes, with the page automatically refreshed every 10 minutes)

About coastal observations | Map of coastal stations | Coastal observations for QLD | Marine services | Other Formats
Station Details ID: 031037 Name: LOW ISLES LIGHTHOUSE Lat: -16.38 Lon: 145.56 Height: 2.9 m
Data from the previous 72 hours. | See also: Recent months at Low Isles
Date/Time
EST
Temp
°C
Wind Pressure Rain since
9am
mm
Weather Cloud Vis
km
Sea
Height
m
Swell
Dir  Spd
kts
Gust
kts
hPa Trend Height
m
Period
s
Dir
01/02:00am 23.6 ESE 18 24 1016.2 - 0.8 - - - - - - -
01/01:30am 23.7 ESE 16 20 1016.3 - 0.8 - - - - - - -
01/01:00am 23.6 SE 12 14 1016.7 - 0.8 - - - - - - -
01/12:30am 23.2 SE 17 20 1017.1 - 0.8 - - - - - - -
01/12:00am 23.7 SE 14 17 1017.2 - 0.8 - - - - - - -
 
Date/Time
EST
Temp
°C
Wind Pressure Rain since
9am
mm
Weather Cloud Vis
km
Sea
Height
m
Swell
Dir  Spd
kts
Gust
kts
hPa Trend Height
m
Period
s
Dir
31/11:30pm 23.3 SSE 14 17 1017.6 - 0.8 - - - - - - -
31/11:00pm 23.7 SSE 14 16 1017.7 - 0.8 - - - - - - -
31/10:30pm 23.5 SE 13 17 1017.8 - 0.8 - - - - - - -
31/10:00pm 23.7 SSE 17 20 1017.8 - 0.8 - - - - - - -
31/09:30pm 24.0 SSE 16 19 1017.7 - 0.6 - - - - - - -
31/09:00pm 24.0 SE 17 21 1017.3 - 0.6 - - - - - - -
31/08:30pm 24.2 SE 16 19 1017.2 - 0.6 - - - - - - -
31/08:00pm 24.1 SSE 16 18 1017.0 - 0.6 - - - - - - -
31/07:30pm 24.0 SSE 16 19 1016.9 - 0.6 - - - - - - -
31/07:00pm 23.8 SSE 11 12 1016.7 - 0.6 - - - - - - -
31/06:30pm 23.8 SSE 13 15 1016.4 - 0.6 - - - - - - -
31/06:00pm 24.2 SSE 17 19 1016.1 - 0.6 - - - - - - -
31/05:30pm 24.4 SSE 17 20 1016.1 - 0.6 - - - - - - -
31/05:00pm 24.3 SE 18 20 1016.0 - 0.6 - - - - - - -
31/04:30pm 24.6 SE 20 24 1016.0 - 0.6 - - - - - - -
31/04:00pm 25.2 SE 16 20 1016.0 - 0.6 - - - - - - -
31/03:30pm 25.0 S 9 11 1016.2 - 0.6 - - - - - - -
31/03:00pm 24.7 S 6 8 1016.5 - 0.6 - - - - - - -
31/02:30pm 24.1 S 11 13 1017.0 - 0.6 - - - - - - -
31/02:00pm 24.9 ESE 13 20 1017.3 - 0.6 - - - - - - -
31/01:30pm 25.4 SSE 13 15 1017.7 - 0.6 - - - - - - -
31/01:00pm 25.3 SSE 14 17 1018.2 - 0.6 - - - - - - -
31/12:30pm 25.3 SSE 13 15 1018.6 - 0.6 - - - - - - -
31/12:00pm 24.8 SSE 14 16 1019.0 - 0.6 - - - - - - -
31/11:30am 24.3 SSE 15 17 1019.6 - 0.6 - - - - - - -
31/11:00am 23.9 SSE 16 18 1020.3 - 0.6 - - - - - - -
31/10:30am 24.0 SSW 9 11 1020.5 - 0.6 - - - - - - -
31/10:00am 23.2 S 10 11 1020.6 - 0.6 - - - - - - -
31/09:30am 22.2 SSE 15 18 1020.6 - 0.6 - - - - - - -
31/09:11am 23.0 SE 21 25 1020.6 - 0.0 - - - - - - -
31/09:00am 23.5 SSE 11 13 1020.2 - 0.0 Distant precip. Mostly cloudy 12 - - - -
31/08:30am 24.1 ESE 11 13 1020.0 - 0.0 - - - - - - -
31/08:00am 23.6 E 18 23 1019.7 - 0.0 - - - - - - -
31/07:30am 23.5 SSE 14 16 1019.4 - 0.0 - - - - - - -
31/07:00am 23.6 SE 17 20 1019.4 - 0.0 - - - - - - -
31/06:30am 23.9 SE 13 16 1019.2 - 0.0 - - - - - - -
31/06:00am 23.9 ESE 11 13 1018.7 - 0.0 - - - - - - -
31/05:30am 23.6 ESE 21 26 1018.5 - 0.0 - - - - - - -
31/05:22am 23.8 ESE 16 26 1018.5 - 0.0 - - - - - - -
31/05:21am 23.8 ESE 15 24 1018.5 - 0.0 - - - - - - -
31/05:00am 23.6 E 10 13 1018.4 - 0.0 - - - - - - -
31/04:30am 23.9 E 17 21 1018.4 - 0.0 - - - - - - -
31/04:00am 23.6 E 18 25 1018.5 - 0.0 - - - - - - -
31/03:30am 23.9 ESE 18 23 1018.5 - 0.0 - - - - - - -
31/03:00am 24.0 ESE 17 21 1018.5 - 0.0 - - - - - - -
31/02:30am 23.7 ESE 18 23 1018.9 - 0.0 - - - - - - -
31/02:00am 23.7 ESE 16 23 1019.1 - 0.0 - - - - - - -
31/01:30am 23.1 SSE 15 18 1019.4 - 0.0 - - - - - - -
31/01:00am 22.7 SSE 14 16 1019.7 - 0.0 - - - - - - -
31/12:30am 22.7 SSE 17 19 1020.0 - 0.0 - - - - - - -
31/12:00am 22.7 S 15 16 1020.0 - 0.0 - - - - - - -
 
Date/Time
EST
Temp
°C
Wind Pressure Rain since
9am
mm
Weather Cloud Vis
km
Sea
Height
m
Swell
Dir  Spd
kts
Gust
kts
hPa Trend Height
m
Period
s
Dir
30/11:30pm 23.3 SSE 13 15 1020.4 - 0.0 - - - - - - -
30/11:00pm 23.7 ESE 15 19 1020.3 - 0.0 - - - - - - -
30/10:30pm 23.0 SE 18 22 1020.4 - 0.0 - - - - - - -
30/10:00pm 23.2 SSE 19 21 1020.5 - 0.0 - - - - - - -
30/09:30pm 23.2 SSE 15 18 1020.7 - 0.0 - - - - - - -
30/09:00pm 23.4 SSE 13 14 1020.5 - 0.0 - - - - - - -
30/08:30pm 23.6 SE 15 17 1020.5 - 0.0 - - - - - - -
30/08:00pm 23.5 SE 18 22 1020.1 - 0.0 - - - - - - -
30/07:30pm 23.8 SE 16 19 1019.8 - 0.0 - - - - - - -
30/07:00pm 23.8 SE 17 20 1019.7 - 0.0 - - - - - - -
30/06:30pm 23.9 SE 19 22 1019.3 - 0.0 - - - - - - -
30/06:00pm 24.3 SE 17 21 1019.0 - 0.0 - - - - - - -
30/05:30pm 24.6 ESE 17 21 1018.9 - 0.0 - - - - - - -
30/05:00pm 24.9 SE 16 19 1018.7 - 0.0 - - - - - - -
30/04:30pm 24.6 SE 17 20 1018.5 - 0.0 - - - - - - -
30/04:00pm 25.0 SE 17 20 1018.2 - 0.0 - - - - - - -
30/03:30pm 25.3 SE 20 24 1018.3 - 0.0 - - - - - - -
30/03:00pm 26.3 ESE 17 22 1018.2 - 0.0 - - - - - - -
30/02:30pm 26.8 ESE 15 19 1018.5 - 0.0 - - - - - - -
30/02:00pm 25.6 SSE 14 16 1019.0 - 0.0 - - - - - - -
30/01:30pm 24.9 SSE 15 17 1019.4 - 0.0 - - - - - - -
30/01:00pm 24.6 SSE 13 15 1019.7 - 0.0 - - - - - - -
30/12:30pm 24.4 SSE 14 17 1020.0 - 0.0 - - - - - - -
30/12:00pm 24.6 SSE 13 15 1020.0 - 0.0 - - - - - - -
30/11:30am 24.0 SSE 14 16 1020.7 - 0.0 - - - - - - -
30/11:00am 23.8 SSE 13 15 1021.0 - 0.0 - - - - - - -
30/10:30am 23.7 SSE 13 15 1021.3 - 0.0 - - - - - - -
30/10:00am 23.2 SSE 18 20 1021.5 - 0.0 - - - - - - -
30/09:30am 23.2 SSE 19 21 1021.3 - 0.0 - - - - - - -
30/09:00am 24.2 SE 15 17 1020.8 - 0.0 Haze Mostly cloudy 10 - - - -
30/08:30am 25.0 E 13 17 1020.6 - - - - - - - - -
30/08:00am 24.5 ESE 12 17 1020.1 - - - - - - - - -
30/07:30am 24.3 E 11 15 1019.5 - - - - - - - - -
30/07:00am 24.2 ESE 16 21 1019.3 - - - - - - - - -
30/06:30am 24.2 ESE 16 21 1018.8 - - - - - - - - -
30/06:00am 24.0 ESE 17 22 1018.5 - - - - - - - - -
30/05:30am 23.9 ESE 17 22 1018.1 - - - - - - - - -
30/05:00am 23.7 ESE 16 21 1018.1 - - - - - - - - -
30/04:30am 23.7 E 15 19 1018.0 - - - - - - - - -
30/04:00am 23.6 ESE 15 19 1018.0 - - - - - - - - -
30/03:30am 23.7 ESE 15 19 1017.9 - - - - - - - - -
30/03:00am 23.7 E 17 22 1017.9 - - - - - - - - -
30/02:30am 23.6 ESE 15 20 1018.0 - - - - - - - - -
30/02:00am 23.5 E 16 20 1018.2 - - - - - - - - -
30/01:30am 23.8 ESE 17 21 1018.5 - - - - - - - - -
30/01:00am 23.7 ESE 16 20 1018.5 - - - - - - - - -
30/12:30am 23.9 ESE 17 21 1018.7 - - - - - - - - -
30/12:00am 23.9 ESE 15 19 1018.7 - - - - - - - - -
 
Date/Time
EST
Temp
°C
Wind Pressure Rain since
9am
mm
Weather Cloud Vis
km
Sea
Height
m
Swell
Dir  Spd
kts
Gust
kts
hPa Trend Height
m
Period
s
Dir
29/11:30pm 24.0 ESE 17 21 1019.0 - - - - - - - - -
29/11:00pm 23.8 ESE 17 23 1019.1 - - - - - - - - -
29/10:30pm 23.8 ESE 17 20 1019.2 - - - - - - - - -
29/10:00pm 23.4 SE 18 21 1019.5 - - - - - - - - -
29/09:30pm 23.5 SSE 19 22 1019.6 - - - - - - - - -
29/09:00pm 23.4 SE 22 25 1019.4 - - - - - - - - -
29/08:30pm 23.4 SE 19 23 1019.3 - - - - - - - - -
29/08:00pm 23.5 SE 21 24 1018.9 - - - - - - - - -
29/07:30pm 23.1 SSE 20 23 1018.6 - - - - - - - - -
29/07:00pm 23.3 SSE 20 22 1018.4 - - - - - - - - -
29/06:30pm 23.2 SE 21 23 1018.2 - - - - - - - - -
29/06:00pm 23.5 SSE 20 23 1018.0 - - - - - - - - -
29/05:30pm 24.1 SE 16 19 1018.1 - - - - - - - - -
29/05:00pm 24.1 SE 16 18 1018.0 - - - - - - - - -
29/04:30pm 24.2 SSE 18 20 1017.8 - - - - - - - - -
29/04:00pm 24.7 SSE 17 21 1017.6 - - - - - - - - -
29/03:30pm 24.9 SSE 18 20 1017.6 - - - - - - - - -
29/03:00pm 25.1 SSE 18 20 1017.6 - - - - - - - - -
29/02:30pm 25.5 SSE 17 20 1017.9 - - - - - - - - -
29/02:00pm 25.0 SSE 17 20 1018.1 - - - - - - - - -
29/01:30pm 25.4 SSE 17 20 1018.4 - - - - - - - - -
29/01:00pm 25.1 SSE 15 17 1018.8 - - - - - - - - -
29/12:30pm 24.2 SSE 16 18 1019.0 - - - - - - - - -
29/12:00pm 24.3 SSE 16 19 1019.3 - - - - - - - - -
29/11:30am 24.3 SSE 17 19 1019.9 - - - - - - - - -
29/11:00am 23.8 SSE 16 19 1020.1 - - - - - - - - -
29/10:30am 23.3 SSE 17 19 1020.4 - - - - - - - - -
29/10:00am 23.3 SSE 18 20 1020.6 - - - - - - - - -
29/09:30am 23.0 SSE 14 17 1020.6 - - - - - - - - -
29/09:25am 23.0 SSE 13 - 1020.5 - 0.0 Haze Mostly cloudy 15 - - - -
29/08:30am 22.6 SSE 17 19 1020.3 - 0.0 - - - - - - -
29/08:00am 22.5 SSE 16 19 1019.9 - 0.0 - - - - - - -
29/07:30am 22.4 SSE 16 19 1019.5 - 0.0 - - - - - - -
29/07:00am 22.2 SSE 17 20 1019.2 - 0.0 - - - - - - -
29/06:00am 22.2 SSE 16 - 1018.2 - - - - - - - - -

Other Formats:

Comma delimited format used in spreadsheet applications
http://www.bom.gov.au/fwo/IDQ60701/IDQ60701.94285.axf

JavaScript Object Notation format (JSON) in row-major order
http://www.bom.gov.au/fwo/IDQ60701/IDQ60701.94285.json